Time;durP1;ratioP1;P1;durP2;ratioP2;P2;SDS_P1;SDS_P2;PMS_P1;PMS_P2;Temp;Humidity;BMP_temperature;BMP_pressure;BME280_temperature;BME280_humidity;BME280_pressure;Samples;Min_cycle;Max_cycle;Signal;HPM_P1;HPM_P2
2021/09/15 00:03:16;;;;;;;14.40;4.33;;;;;;;15.68;100.00;94960.94;10572104;28;20042;-71
2021/09/15 00:08:17;;;;;;;10.55;4.90;;;;;;;15.41;100.00;94961.72;10571092;28;20036;-71
2021/09/15 00:13:17;;;;;;;11.07;4.40;;;;;;;15.49;100.00;94969.94;10547323;28;20052;-71
2021/09/15 00:18:19;;;;;;;8.15;4.53;;;;;;;15.43;100.00;94976.53;10528760;28;20423;-71
2021/09/15 00:23:19;;;;;;;8.88;5.07;;;;;;;15.33;100.00;94972.09;10527085;28;20034;-71
2021/09/15 00:28:19;;;;;;;7.28;4.97;;;;;;;15.21;100.00;94974.50;10528230;28;20028;-71
2021/09/15 00:33:20;;;;;;;21.13;5.40;;;;;;;15.15;100.00;94973.78;10527726;28;20028;-71
2021/09/15 00:38:20;;;;;;;12.23;5.13;;;;;;;15.05;100.00;94971.22;10528986;28;20023;-71
2021/09/15 00:43:21;;;;;;;8.70;4.50;;;;;;;14.90;100.00;94974.97;10510578;28;20028;-71
2021/09/15 00:48:21;;;;;;;8.20;4.50;;;;;;;14.89;100.00;94981.50;10510257;28;20028;-71
2021/09/15 00:53:21;;;;;;;6.53;4.90;;;;;;;14.95;100.00;94982.22;10528262;28;20032;-71
2021/09/15 00:58:22;;;;;;;6.35;4.07;;;;;;;14.97;100.00;94985.44;10528173;28;20051;-71
2021/09/15 01:03:22;;;;;;;9.07;4.45;;;;;;;14.98;100.00;94987.84;10528236;28;20185;-71
2021/09/15 01:08:24;;;;;;;7.77;4.70;;;;;;;14.85;100.00;94977.78;10527949;28;20031;-71
2021/09/15 01:13:25;;;;;;;8.18;5.38;;;;;;;14.85;100.00;94978.56;10528184;28;20028;-71
2021/09/15 01:18:27;;;;;;;9.20;4.95;;;;;;;14.85;100.00;94978.56;10527737;28;20106;-71
2021/09/15 01:23:27;;;;;;;8.23;4.60;;;;;;;14.94;100.00;94980.63;10509331;28;20115;-71
2021/09/15 01:28:28;;;;;;;8.70;5.63;;;;;;;14.90;100.00;94979.59;10527936;28;20032;-71
2021/09/15 01:33:28;;;;;;;14.50;5.73;;;;;;;14.92;100.00;94980.13;10531640;28;20063;-71
2021/09/15 01:38:28;;;;;;;7.77;4.50;;;;;;;14.80;100.00;94983.25;10535635;28;20054;-70
2021/09/15 01:43:29;;;;;;;8.20;5.17;;;;;;;14.70;100.00;94989.63;10535369;28;20036;-71
2021/09/15 01:48:29;;;;;;;8.53;4.83;;;;;;;14.66;100.00;94991.31;10534090;28;20035;-70
2021/09/15 01:53:29;;;;;;;6.17;4.80;;;;;;;14.55;100.00;94990.59;10533555;28;20023;-70
2021/09/15 01:58:30;;;;;;;11.07;5.73;;;;;;;14.64;100.00;94988.91;10533646;28;20059;-70
2021/09/15 02:03:30;;;;;;;6.47;4.87;;;;;;;14.63;100.00;94992.69;10534452;28;20048;-70
2021/09/15 02:08:30;;;;;;;7.67;5.43;;;;;;;14.64;100.00;94993.50;10534398;28;20111;-71
2021/09/15 02:13:31;;;;;;;8.13;4.80;;;;;;;14.52;100.00;94983.88;10534137;28;20027;-71
2021/09/15 02:18:31;;;;;;;8.77;5.87;;;;;;;14.36;100.00;94991.41;10534452;28;20278;-70
2021/09/15 02:23:31;;;;;;;10.00;5.70;;;;;;;14.23;100.00;94994.81;10534043;28;20364;-70
2021/09/15 02:28:32;;;;;;;16.30;5.10;;;;;;;14.28;100.00;94988.56;10533440;28;20789;-70
2021/09/15 02:33:33;;;;;;;29.00;7.35;;;;;;;14.15;100.00;94998.97;10533766;28;20282;-70
2021/09/15 02:38:33;;;;;;;12.98;6.38;;;;;;;14.21;100.00;94996.22;10533332;28;20028;-70
2021/09/15 02:43:34;;;;;;;8.60;5.83;;;;;;;14.13;100.00;95001.13;10532600;28;20036;-70
2021/09/15 02:48:34;;;;;;;11.85;6.00;;;;;;;13.93;100.00;95001.41;10531959;28;20285;-70
2021/09/15 02:53:35;;;;;;;8.95;5.63;;;;;;;13.90;100.00;94999.25;10531814;28;20028;-70
2021/09/15 02:58:35;;;;;;;11.68;5.68;;;;;;;13.86;100.00;95001.75;10530293;28;20048;-70
2021/09/15 03:03:36;;;;;;;8.70;5.73;;;;;;;13.74;100.00;95002.13;10532722;28;20458;-70
2021/09/15 03:08:36;;;;;;;9.50;6.43;;;;;;;13.61;100.00;95002.81;10532315;28;20032;-70
2021/09/15 03:13:36;;;;;;;10.83;6.10;;;;;;;13.44;100.00;95017.56;10531909;28;20081;-70
2021/09/15 03:18:37;;;;;;;14.00;5.80;;;;;;;13.50;100.00;95015.59;10531302;28;20764;-70
2021/09/15 03:23:37;;;;;;;10.27;5.97;;;;;;;13.48;100.00;95012.41;10530979;28;20036;-71
2021/09/15 03:28:37;;;;;;;9.37;5.70;;;;;;;13.46;100.00;95014.56;10531612;28;20032;-70
2021/09/15 03:33:38;;;;;;;15.20;6.20;;;;;;;13.34;100.00;95017.63;10531219;28;20031;-70
2021/09/15 03:38:38;;;;;;;7.82;5.55;;;;;;;13.37;100.00;95029.75;10530868;28;20059;-71
2021/09/15 03:43:39;;;;;;;11.00;6.27;;;;;;;13.27;100.00;95031.44;10530506;28;20082;-71
2021/09/15 03:48:39;;;;;;;10.15;6.53;;;;;;;13.19;100.00;95039.34;10528908;28;20024;-71
2021/09/15 03:53:40;;;;;;;13.40;6.40;;;;;;;13.12;100.00;95037.75;10528385;28;20042;-71
2021/09/15 03:58:40;;;;;;;11.43;6.32;;;;;;;13.16;100.00;95032.63;10528736;28;20838;-71
2021/09/15 04:03:41;;;;;;;11.10;6.97;;;;;;;13.12;100.00;95045.84;10529599;28;20051;-71
2021/09/15 04:08:41;;;;;;;11.15;6.20;;;;;;;13.11;100.00;95043.44;10529845;28;20109;-71
2021/09/15 04:13:41;;;;;;;10.27;6.47;;;;;;;13.16;100.00;95052.28;10560515;28;20027;-71
2021/09/15 04:18:42;;;;;;;13.30;6.30;;;;;;;13.15;100.00;95057.97;10571247;28;20130;-71
2021/09/15 04:34:20;;;;;;;10.85;7.03;;;;;;;13.06;100.00;95071.28;10570903;28;20032;-71
2021/09/15 04:39:20;;;;;;;13.13;6.47;;;;;;;13.07;100.00;95072.06;10568733;28;20804;-71
2021/09/15 04:44:21;;;;;;;26.98;7.30;;;;;;;13.07;100.00;95077.47;10568673;28;20327;-71
2021/09/15 04:49:21;;;;;;;10.73;6.93;;;;;;;13.21;100.00;95089.22;10570082;28;20529;-71
2021/09/15 04:54:21;;;;;;;10.83;6.60;;;;;;;13.27;100.00;95084.59;10570097;28;20261;-71
2021/09/15 04:59:22;;;;;;;13.77;7.83;;;;;;;13.45;100.00;95083.97;10564887;28;20460;-71
2021/09/15 05:04:22;;;;;;;15.67;7.40;;;;;;;13.39;100.00;95079.69;10541145;28;20575;-71
2021/09/15 05:09:22;;;;;;;22.97;8.27;;;;;;;13.53;100.00;95077.13;10561648;28;20035;-71
2021/09/15 05:14:23;;;;;;;17.43;9.00;;;;;;;13.82;100.00;95081.75;10544634;27;20440;-71
2021/09/15 05:19:23;;;;;;;17.57;8.87;;;;;;;14.27;100.00;95071.53;10539947;28;20046;-71
2021/09/15 05:24:24;;;;;;;20.83;8.10;;;;;;;14.67;100.00;95077.56;10572716;27;20035;-70
2021/09/15 05:29:24;;;;;;;31.07;8.00;;;;;;;15.12;100.00;95079.13;10582610;27;20023;-71
2021/09/15 05:34:24;;;;;;;19.17;7.80;;;;;;;15.39;100.00;95078.44;10569087;28;20274;-71
2021/09/15 05:39:25;;;;;;;19.33;6.50;;;;;;;15.55;100.00;95082.53;10540820;28;20031;-71
2021/09/15 05:44:25;;;;;;;16.50;6.28;;;;;;;15.70;100.00;95091.50;10560019;28;20072;-71
2021/09/15 05:49:25;;;;;;;8.77;5.50;;;;;;;15.58;100.00;95091.97;10582823;28;20023;-71
2021/09/15 05:54:26;;;;;;;9.87;6.20;;;;;;;15.53;100.00;95090.16;10582786;28;20056;-71
2021/09/15 05:59:26;;;;;;;15.43;6.43;;;;;;;15.47;100.00;95085.91;10560187;28;20130;-71
2021/09/15 06:04:27;;;;;;;9.30;6.13;;;;;;;15.57;100.00;95087.63;10539591;28;20076;-71
2021/09/15 06:09:27;;;;;;;12.03;6.17;;;;;;;15.89;100.00;95080.63;10540487;28;20107;-72
2021/09/15 06:14:27;;;;;;;16.40;7.40;;;;;;;16.90;100.00;95097.16;10540248;28;20024;-71
2021/09/15 06:19:28;;;;;;;11.93;6.67;;;;;;;17.52;100.00;95085.69;10535182;28;20377;-71
2021/09/15 06:24:28;;;;;;;11.30;6.90;;;;;;;17.73;99.70;95077.84;10533111;28;20024;-72
2021/09/15 06:29:29;;;;;;;14.10;7.05;;;;;;;18.13;95.65;95081.81;10570403;28;20564;-72
2021/09/15 06:34:29;;;;;;;17.77;6.47;;;;;;;18.20;91.17;95085.66;10574362;28;20024;-73
2021/09/15 06:39:29;;;;;;;10.70;6.60;;;;;;;18.47;87.02;95096.66;10568113;28;20273;-72
2021/09/15 06:44:30;;;;;;;17.13;7.20;;;;;;;18.94;88.33;95091.53;10513895;28;20081;-73
2021/09/15 06:49:30;;;;;;;21.10;8.53;;;;;;;19.26;86.17;95086.78;10535681;28;20027;-73
2021/09/15 06:54:30;;;;;;;20.27;6.97;;;;;;;19.77;78.67;95092.50;10561663;27;20050;-73
2021/09/15 06:59:31;;;;;;;11.00;6.30;;;;;;;20.69;73.58;95094.06;10568805;27;20052;-73
2021/09/15 07:04:32;;;;;;;17.33;6.32;;;;;;;22.17;65.72;95099.53;10539394;28;20406;-73
2021/09/15 07:09:33;;;;;;;10.10;5.30;;;;;;;24.10;52.65;95083.13;10550571;28;20023;-73
2021/09/15 07:14:33;;;;;;;9.73;5.70;;;;;;;25.48;47.08;95082.53;10521837;27;20024;-73
2021/09/15 07:19:33;;;;;;;8.33;4.50;;;;;;;26.72;42.59;95085.34;10572209;28;20829;-73
2021/09/15 07:24:34;;;;;;;10.13;4.63;;;;;;;28.07;40.03;95083.28;10570426;28;20289;-73
2021/09/15 07:29:34;;;;;;;11.00;4.17;;;;;;;28.42;37.54;95079.28;10529888;28;20273;-73
2021/09/15 07:34:35;;;;;;;9.37;4.20;;;;;;;29.64;36.03;95080.22;10597120;27;20061;-72
2021/09/15 07:39:35;;;;;;;10.83;4.43;;;;;;;30.66;34.46;95073.03;10596712;27;20643;-71
2021/09/15 07:44:35;;;;;;;15.60;4.00;;;;;;;30.91;32.93;95075.00;10614747;27;20023;-71
2021/09/15 07:49:36;;;;;;;9.47;3.97;;;;;;;31.72;31.42;95072.53;10547168;27;20024;-71
2021/09/15 07:54:36;;;;;;;7.97;3.90;;;;;;;33.03;29.93;95060.25;10571679;28;20020;-70
2021/09/15 07:59:37;;;;;;;7.45;4.05;;;;;;;34.13;28.21;95061.44;10571261;28;20654;-71
2021/09/15 08:04:37;;;;;;;8.02;3.83;;;;;;;34.69;27.69;95058.28;10571963;28;20468;-71
2021/09/15 08:09:38;;;;;;;9.88;4.47;;;;;;;35.29;26.88;95066.06;10553086;28;20019;-71
2021/09/15 08:14:38;;;;;;;9.20;3.90;;;;;;;35.73;26.18;95060.50;10570343;28;20022;-72
2021/09/15 08:19:39;;;;;;;8.33;3.63;;;;;;;35.42;25.80;95052.31;10537342;27;20032;-72
2021/09/15 08:24:39;;;;;;;14.75;4.80;;;;;;;32.54;28.66;95064.97;10530391;28;20107;-72
2021/09/15 08:29:39;;;;;;;17.47;5.40;;;;;;;30.89;33.47;95060.75;10530188;28;20031;-73
2021/09/15 08:34:40;;;;;;;12.33;4.77;;;;;;;29.01;34.91;95062.00;10529748;28;20134;-72
2021/09/15 08:39:40;;;;;;;11.53;4.73;;;;;;;28.47;36.56;95057.59;10590951;27;20413;-72
2021/09/15 08:44:40;;;;;;;13.00;4.87;;;;;;;29.77;33.50;95055.72;10602371;27;20520;-72
2021/09/15 08:49:42;;;;;;;9.13;5.13;;;;;;;30.40;34.18;95061.06;10602655;27;20434;-72
2021/09/15 08:54:43;;;;;;;15.95;4.95;;;;;;;29.70;34.82;95047.41;10553998;28;20133;-72
2021/09/15 08:59:43;;;;;;;9.27;5.53;;;;;;;28.89;35.84;95050.06;10560672;28;20096;-71
2021/09/15 09:05:03;;;;;;;14.07;5.67;;;;;;;29.53;35.79;95048.09;10566443;28;20035;-71
2021/09/15 09:10:07;;;;;;;11.60;5.20;;;;;;;30.54;34.07;95042.91;10570634;28;20026;-71
2021/09/15 09:15:27;;;;;;;9.80;4.68;;;;;;;30.50;32.92;95032.59;10578602;28;20390;-71
2021/09/15 09:20:31;;;;;;;10.70;5.13;;;;;;;28.74;34.36;95038.09;10580451;28;20042;-71
2021/09/15 09:25:38;;;;;;;11.32;5.32;;;;;;;28.15;35.54;95029.66;10618738;27;20027;-71
2021/09/15 09:30:39;;;;;;;11.25;5.10;;;;;;;28.91;36.70;95035.84;10612693;28;20461;-71
2021/09/15 09:35:54;;;;;;;11.45;4.93;;;;;;;29.47;34.04;95017.22;10598453;28;20109;-71
2021/09/15 09:40:57;;;;;;;15.27;4.85;;;;;;;31.11;31.89;95012.34;10590082;28;20027;-72
2021/09/15 09:45:58;;;;;;;13.02;5.35;;;;;;;34.47;29.04;95007.59;10613022;28;20134;-71
2021/09/15 09:51:00;;;;;;;17.45;4.80;;;;;;;33.73;29.56;95002.59;10612432;28;20027;-71
2021/09/15 09:56:00;;;;;;;13.30;4.07;;;;;;;36.42;25.65;94996.31;10619945;27;20090;-71
2021/09/15 10:01:01;;;;;;;13.07;3.67;;;;;;;38.49;22.68;94989.50;10620400;27;20532;-72
2021/09/15 10:06:01;;;;;;;11.27;3.03;;;;;;;40.47;21.47;94978.84;10619964;27;20035;-70
2021/09/15 10:11:02;;;;;;;7.70;2.90;;;;;;;40.87;20.19;94969.59;10620427;27;20019;-71
2021/09/15 10:16:06;;;;;;;6.00;2.88;;;;;;;38.22;20.80;94957.06;10620344;27;20694;-72
2021/09/15 10:21:07;;;;;;;10.38;3.08;;;;;;;39.93;19.15;94958.44;10620037;27;20498;-71
2021/09/15 10:26:31;;;;;;;13.70;3.05;;;;;;;40.88;18.59;94954.25;10619650;27;20015;-71
2021/09/15 10:32:00;;;;;;;6.22;3.00;;;;;;;40.04;18.92;94955.22;10573585;27;20035;-70
2021/09/15 10:37:01;;;;;;;12.15;3.28;;;;;;;41.59;18.39;94940.38;10536730;28;20036;-70
2021/09/15 10:42:04;;;;;;;13.57;3.35;;;;;;;42.26;18.09;94941.31;10572666;28;20038;-70
2021/09/15 10:47:23;;;;;;;11.48;3.10;;;;;;;41.73;18.26;94936.09;10577023;28;20061;-70
2021/09/15 10:52:23;;;;;;;11.57;2.97;;;;;;;40.84;17.95;94934.66;10557091;28;20028;-70
2021/09/15 10:57:26;;;;;;;5.95;2.80;;;;;;;40.33;18.57;94924.69;10515059;28;20013;-71
2021/09/15 11:02:33;;;;;;;8.85;3.60;;;;;;;39.76;20.11;94915.69;10533292;28;20032;-71
2021/09/15 11:07:45;;;;;;;5.00;3.00;;;;;;;37.13;21.67;94904.53;10531623;28;20024;-71
2021/09/15 11:12:46;;;;;;;6.90;3.17;;;;;;;34.35;23.08;94905.72;10532995;28;20730;-71
2021/09/15 11:17:47;;;;;;;5.23;3.27;;;;;;;32.81;24.42;94889.06;10532644;28;20024;-71
2021/09/15 11:22:48;;;;;;;7.18;3.97;;;;;;;31.14;26.70;94886.63;10531784;28;20288;-71
2021/09/15 11:28:07;;;;;;;6.28;3.63;;;;;;;30.51;27.36;94881.63;10531888;28;20032;-70
2021/09/15 11:33:09;;;;;;;9.30;4.57;;;;;;;30.45;29.33;94882.41;10529438;28;20036;-70
2021/09/15 11:38:09;;;;;;;9.70;3.20;;;;;;;30.24;28.94;94886.78;10529632;28;20026;-71
2021/09/15 11:43:11;;;;;;;5.90;3.63;;;;;;;30.25;27.95;94880.03;10530618;28;20565;-71
2021/09/15 11:48:12;;;;;;;13.45;7.55;;;;;;;30.21;27.74;94882.03;10529611;28;20300;-71
2021/09/15 11:53:14;;;;;;;7.97;4.53;;;;;;;30.04;27.00;94866.97;10530108;28;20407;-71
2021/09/15 11:58:15;;;;;;;5.55;4.07;;;;;;;29.91;27.97;94863.03;10530080;28;20286;-70
2021/09/15 12:03:19;;;;;;;8.20;4.00;;;;;;;29.24;27.94;94866.06;10529551;28;20032;-71
2021/09/15 12:08:20;;;;;;;5.88;3.65;;;;;;;28.52;29.11;94851.06;10529264;28;20032;-71
2021/09/15 12:13:31;;;;;;;9.40;3.95;;;;;;;28.22;29.89;94847.34;10529083;28;20412;-71
2021/09/15 12:18:37;;;;;;;8.68;5.25;;;;;;;28.06;30.40;94846.81;10528084;28;20024;-71
2021/09/15 12:23:38;;;;;;;6.50;4.10;;;;;;;28.16;29.94;94837.03;10527798;28;20032;-71
2021/09/15 12:28:40;;;;;;;6.70;4.20;;;;;;;28.08;29.82;94828.69;10527772;28;20036;-70
2021/09/15 12:33:41;;;;;;;9.73;4.80;;;;;;;28.34;28.74;94832.41;10535621;27;20470;-70
2021/09/15 12:38:57;;;;;;;7.20;4.53;;;;;;;28.52;31.29;94823.41;10533182;27;20038;-70
2021/09/15 12:44:34;;;;;;;11.75;5.43;;;;;;;28.60;31.89;94822.28;10581245;27;20026;-71
2021/09/15 12:49:38;;;;;;;8.80;4.05;;;;;;;29.04;30.53;94824.06;10611685;27;20548;-70
2021/09/15 12:54:38;;;;;;;9.65;4.30;;;;;;;29.22;29.18;94820.53;10592859;27;20023;-70
2021/09/15 12:59:38;;;;;;;8.07;3.73;;;;;;;29.39;28.42;94813.47;10588021;27;20052;-71
2021/09/15 13:04:39;;;;;;;7.63;4.20;;;;;;;29.13;28.58;94809.84;10510615;28;20039;-71
2021/09/15 13:09:39;;;;;;;7.13;3.93;;;;;;;29.07;28.13;94809.44;10528598;28;20139;-71
2021/09/15 13:14:40;;;;;;;4.43;3.55;;;;;;;28.56;28.86;94813.94;10528530;28;20046;-71
2021/09/15 13:19:41;;;;;;;9.30;3.47;;;;;;;28.16;29.60;94803.88;10528705;28;20032;-70
2021/09/15 13:24:41;;;;;;;6.22;4.40;;;;;;;27.78;29.94;94802.00;10581266;28;20028;-70
2021/09/15 13:29:43;;;;;;;9.73;4.47;;;;;;;27.51;30.06;94797.84;10545757;28;20119;-71
2021/09/15 13:34:43;;;;;;;6.72;3.80;;;;;;;27.34;32.41;94786.22;10535646;28;20765;-71
2021/09/15 13:39:43;;;;;;;7.07;4.27;;;;;;;27.23;31.49;94796.38;10534777;28;20036;-71
2021/09/15 13:44:44;;;;;;;8.77;4.23;;;;;;;27.17;30.76;94795.09;10532474;28;20292;-71
2021/09/15 13:49:44;;;;;;;8.13;3.90;;;;;;;27.18;29.97;94797.47;10533539;28;20722;-71
2021/09/15 13:54:47;;;;;;;9.57;5.20;;;;;;;27.28;31.98;94790.47;10534270;28;20310;-71
2021/09/15 13:59:49;;;;;;;10.32;4.10;;;;;;;27.26;35.17;94793.63;10533438;28;20106;-71
2021/09/15 14:04:50;;;;;;;7.18;4.47;;;;;;;27.26;34.97;94785.34;10534322;28;20047;-70
2021/09/15 14:09:50;;;;;;;11.33;4.50;;;;;;;27.15;34.69;94792.72;10534263;28;20082;-72
2021/09/15 14:14:50;;;;;;;11.50;4.30;;;;;;;27.00;33.95;94791.81;10533871;28;20028;-69
2021/09/15 14:19:51;;;;;;;7.50;4.50;;;;;;;26.82;35.51;94793.56;10533749;28;20085;-69
2021/09/15 14:24:51;;;;;;;10.87;4.60;;;;;;;26.71;34.57;94785.97;10574098;28;20300;-70
2021/09/15 14:29:52;;;;;;;13.83;4.47;;;;;;;26.58;35.80;94793.66;10575464;28;20036;-70
2021/09/15 14:34:52;;;;;;;9.80;5.75;;;;;;;26.44;36.42;94805.31;10575331;28;20417;-70
2021/09/15 14:39:52;;;;;;;11.17;5.60;;;;;;;26.04;36.73;94814.97;10574443;28;20139;-70
2021/09/15 14:44:53;;;;;;;15.38;6.53;;;;;;;25.83;37.22;94803.59;10574649;28;20038;-70
2021/09/15 14:49:53;;;;;;;9.32;5.75;;;;;;;25.69;38.46;94810.47;10574808;28;20035;-70
2021/09/15 14:54:54;;;;;;;10.80;5.27;;;;;;;25.52;38.40;94810.97;10573221;28;20030;-70
2021/09/15 14:59:54;;;;;;;15.77;6.67;;;;;;;25.29;39.97;94831.00;10554025;28;20047;-70
2021/09/15 15:04:54;;;;;;;14.00;6.97;;;;;;;25.05;42.20;94818.38;10559134;27;20467;-70
2021/09/15 15:09:55;;;;;;;21.47;8.83;;;;;;;24.88;43.41;94822.34;10584950;27;20037;-71
2021/09/15 15:14:55;;;;;;;14.93;7.03;;;;;;;24.77;43.64;94824.09;10573740;28;20118;-71
2021/09/15 15:19:56;;;;;;;13.53;7.27;;;;;;;24.70;43.64;94824.78;10572503;28;20495;-71
2021/09/15 15:24:57;;;;;;;17.77;7.53;;;;;;;24.63;45.69;94825.44;10571244;28;20031;-71
2021/09/15 15:29:58;;;;;;;17.02;6.85;;;;;;;24.41;47.19;94824.16;10571980;28;20058;-70
2021/09/15 15:34:58;;;;;;;14.23;6.45;;;;;;;24.28;48.22;94828.16;10572529;28;20550;-71
2021/09/15 15:39:59;;;;;;;12.38;6.22;;;;;;;24.30;47.85;94834.13;10572525;28;20028;-71
2021/09/15 15:45:00;;;;;;;13.85;5.50;;;;;;;24.23;50.43;94834.75;10572422;28;20039;-71
2021/09/15 15:50:00;;;;;;;11.30;5.80;;;;;;;23.88;49.16;94835.53;10569509;28;20027;-71
2021/09/15 15:55:01;;;;;;;13.57;5.30;;;;;;;23.79;48.70;94837.63;10587126;27;20085;-71
2021/09/15 16:00:02;;;;;;;12.45;5.78;;;;;;;23.75;50.32;94842.22;10571076;28;20101;-71
2021/09/15 16:05:03;;;;;;;25.60;6.25;;;;;;;23.58;49.74;94835.94;10552498;28;20036;-71
2021/09/15 16:10:05;;;;;;;25.98;6.70;;;;;;;23.40;49.54;94840.19;10529873;28;20036;-70
2021/09/15 16:15:07;;;;;;;10.45;5.65;;;;;;;23.16;47.34;94845.47;10528867;28;20835;-70
2021/09/15 16:20:08;;;;;;;17.08;5.65;;;;;;;22.97;46.88;94842.56;10527655;28;20479;-70
2021/09/15 16:25:09;;;;;;;13.02;5.53;;;;;;;22.85;47.27;94832.47;10529460;27;20105;-71
2021/09/15 16:30:11;;;;;;;10.38;6.10;;;;;;;22.70;47.47;94842.22;10557748;27;20458;-71
2021/09/15 16:35:12;;;;;;;12.15;6.60;;;;;;;22.50;46.91;94844.00;10528259;28;20024;-70
2021/09/15 16:40:12;;;;;;;15.48;7.18;;;;;;;22.38;47.17;94849.50;10528592;28;20395;-71
2021/09/15 16:45:13;;;;;;;12.82;6.75;;;;;;;22.25;48.35;94863.19;10563315;28;20040;-71
2021/09/15 16:50:15;;;;;;;18.58;6.95;;;;;;;22.20;50.71;94868.91;10595146;27;20049;-71
2021/09/15 16:55:15;;;;;;;13.00;6.07;;;;;;;22.13;50.92;94879.63;10612982;27;20451;-71
2021/09/15 17:00:15;;;;;;;11.57;6.27;;;;;;;21.96;51.28;94886.13;10612614;27;20043;-70
2021/09/15 17:05:16;;;;;;;12.23;7.28;;;;;;;21.92;51.85;94907.13;10611973;27;20070;-71
2021/09/15 17:10:18;;;;;;;14.63;7.47;;;;;;;21.79;51.63;94901.63;10612444;28;20031;-71
2021/09/15 17:15:19;;;;;;;16.85;7.10;;;;;;;21.68;54.84;94901.31;10546988;28;20134;-71
2021/09/15 17:20:20;;;;;;;18.27;8.50;;;;;;;21.57;54.76;94913.78;10545728;28;20032;-71
2021/09/15 17:25:20;;;;;;;22.45;8.98;;;;;;;21.41;57.37;94915.56;10560034;28;20390;-71
2021/09/15 17:30:20;;;;;;;15.07;8.00;;;;;;;21.30;58.04;94921.44;10565473;28;20066;-71
2021/09/15 17:35:21;;;;;;;13.05;8.07;;;;;;;21.20;60.97;94921.88;10565153;28;20755;-71
2021/09/15 17:40:21;;;;;;;23.70;8.67;;;;;;;21.15;64.96;94930.28;10566256;28;20035;-71
2021/09/15 17:45:22;;;;;;;18.48;8.27;;;;;;;20.91;68.30;94936.47;10560934;28;20293;-71
2021/09/15 17:50:22;;;;;;;22.43;8.90;;;;;;;20.73;69.11;94944.00;10564807;28;20114;-71
2021/09/15 17:55:23;;;;;;;22.60;8.53;;;;;;;20.69;72.19;94952.03;10570368;28;20031;-70
2021/09/15 18:00:23;;;;;;;21.52;9.95;;;;;;;20.38;73.50;94958.63;10566525;28;20290;-70
2021/09/15 18:05:23;;;;;;;28.60;8.65;;;;;;;20.29;77.24;94953.22;10565210;28;20759;-71
2021/09/15 18:10:24;;;;;;;19.17;9.37;;;;;;;20.30;79.69;94946.66;10564960;28;20031;-70
2021/09/15 18:15:27;;;;;;;18.02;8.38;;;;;;;20.12;78.94;94945.94;10568272;28;20076;-71
2021/09/15 18:20:28;;;;;;;23.15;9.13;;;;;;;20.09;76.85;94956.69;10565166;28;20758;-70
2021/09/15 18:25:30;;;;;;;23.90;10.60;;;;;;;20.08;70.98;94958.66;10570363;28;20030;-70
2021/09/15 18:30:31;;;;;;;23.88;10.45;;;;;;;20.05;71.22;94956.56;10550557;28;20304;-70
2021/09/15 18:35:31;;;;;;;23.10;9.60;;;;;;;19.86;73.66;94962.41;10542407;28;20034;-69
2021/09/15 18:40:35;;;;;;;26.10;9.07;;;;;;;19.75;74.72;94956.50;10575608;28;20467;-70
2021/09/15 18:45:35;;;;;;;21.50;9.82;;;;;;;19.68;75.88;94955.41;10570794;28;20049;-70
2021/09/15 18:50:36;;;;;;;19.90;8.82;;;;;;;19.56;76.97;94948.69;10586063;27;20034;-70
2021/09/15 18:55:37;;;;;;;16.63;8.52;;;;;;;19.45;78.06;94955.59;10593043;27;20490;-70
2021/09/15 19:00:38;;;;;;;15.82;7.90;;;;;;;19.36;79.05;94958.34;10582741;27;20048;-85
2021/09/15 19:05:38;;;;;;;18.15;8.05;;;;;;;19.29;80.82;94949.88;10591911;27;20463;-77
2021/09/15 19:10:39;;;;;;;17.02;8.77;;;;;;;19.32;81.08;94941.06;10573363;28;20088;-70
2021/09/15 19:15:39;;;;;;;14.83;7.67;;;;;;;19.27;84.67;94950.19;10572572;28;20023;-70
2021/09/15 19:20:40;;;;;;;24.17;7.63;;;;;;;19.22;82.02;94952.31;10602439;27;20042;-70
2021/09/15 19:25:46;;;;;;;13.00;7.88;;;;;;;19.06;84.25;94962.88;10597864;27;20188;-71
2021/09/15 19:30:47;;;;;;;13.90;7.60;;;;;;;19.00;83.34;94962.25;10597725;27;20092;-70
2021/09/15 19:35:48;;;;;;;12.50;7.20;;;;;;;18.98;82.56;94960.94;10592528;27;20080;-70
2021/09/15 19:40:48;;;;;;;13.10;6.85;;;;;;;18.98;82.38;94964.50;10606615;27;20696;-70
2021/09/15 19:45:48;;;;;;;14.30;6.63;;;;;;;18.93;84.15;94964.66;10542331;28;20032;-70
2021/09/15 19:50:49;;;;;;;11.37;8.33;;;;;;;18.84;85.94;94958.34;10543036;28;21675;-70
2021/09/15 19:55:49;;;;;;;14.50;7.00;;;;;;;18.73;88.73;94960.63;10568661;28;20277;-70
2021/09/15 20:00:49;;;;;;;11.20;7.20;;;;;;;18.58;89.21;94954.50;10541736;28;20040;-71
2021/09/15 20:05:50;;;;;;;12.17;7.30;;;;;;;18.52;88.11;94955.00;10592713;27;20035;-71
2021/09/15 20:10:50;;;;;;;16.90;7.68;;;;;;;18.49;90.33;94969.22;10592271;27;20039;-70
2021/09/15 20:15:51;;;;;;;20.67;7.60;;;;;;;18.47;93.30;94968.75;10528921;28;20077;-71
2021/09/15 20:20:51;;;;;;;12.98;6.82;;;;;;;18.45;95.53;94967.13;10544436;28;20042;-72
2021/09/15 20:25:52;;;;;;;13.18;7.78;;;;;;;18.41;96.82;94970.81;10554740;28;20089;-72
2021/09/15 20:30:53;;;;;;;13.60;7.55;;;;;;;18.34;96.09;94984.09;10527432;28;20027;-72
2021/09/15 20:35:53;;;;;;;12.90;8.57;;;;;;;18.14;100.00;94993.63;10528232;28;20028;-72
2021/09/15 20:40:55;;;;;;;12.25;8.23;;;;;;;18.02;100.00;94991.50;10528602;28;20277;-72
2021/09/15 20:45:55;;;;;;;20.85;8.80;;;;;;;17.78;100.00;94995.38;10510734;28;20073;-72
2021/09/15 20:50:56;;;;;;;16.27;8.63;;;;;;;17.44;100.00;94985.91;10510803;28;20039;-72
2021/09/15 20:55:56;;;;;;;17.73;9.30;;;;;;;17.41;100.00;94976.47;10510234;28;20019;-72
2021/09/15 21:00:56;;;;;;;34.97;24.05;;;;;;;17.35;100.00;94968.75;10534414;28;20058;-72
2021/09/15 21:05:57;;;;;;;13.00;8.23;;;;;;;17.19;100.00;94961.00;10569961;28;20220;-72
2021/09/15 21:10:57;;;;;;;11.55;6.90;;;;;;;17.02;100.00;94969.00;10569568;28;20470;-72
2021/09/15 21:15:58;;;;;;;10.13;6.97;;;;;;;16.84;100.00;94987.03;10570407;28;20057;-72
2021/09/15 21:20:58;;;;;;;10.47;6.93;;;;;;;16.83;100.00;94986.25;10570438;28;20087;-72
2021/09/15 21:25:59;;;;;;;13.95;8.05;;;;;;;16.87;100.00;94981.81;10569829;28;20067;-72
2021/09/15 21:31:00;;;;;;;13.88;7.00;;;;;;;16.82;100.00;94983.84;10569530;28;20019;-72
2021/09/15 21:36:00;;;;;;;9.27;6.82;;;;;;;16.83;100.00;94991.69;10569801;28;20110;-72
2021/09/15 21:41:00;;;;;;;11.67;6.20;;;;;;;16.77;100.00;94994.81;10551089;28;20042;-72
2021/09/15 21:46:01;;;;;;;9.80;6.40;;;;;;;16.62;100.00;94996.78;10569285;28;20110;-72
2021/09/15 21:51:01;;;;;;;13.13;7.73;;;;;;;16.25;100.00;94990.47;10556873;28;20034;-72
2021/09/15 21:56:01;;;;;;;10.40;6.27;;;;;;;16.09;100.00;94995.44;10577651;28;20032;-72
2021/09/15 22:01:07;;;;;;;16.02;7.50;;;;;;;16.09;100.00;95002.75;10558587;28;20048;-73
2021/09/15 22:06:08;;;;;;;29.83;7.55;;;;;;;16.11;100.00;95009.47;10577302;28;20122;-72
2021/09/15 22:11:08;;;;;;;12.40;7.95;;;;;;;16.10;100.00;95016.00;10576808;28;20027;-72
2021/09/15 22:16:10;;;;;;;10.60;6.93;;;;;;;16.22;100.00;95013.59;10576822;28;20057;-72
2021/09/15 22:21:12;;;;;;;13.45;7.45;;;;;;;16.27;100.00;95014.59;10542462;28;20282;-72
2021/09/15 22:26:12;;;;;;;10.85;6.47;;;;;;;16.26;100.00;95007.56;10533777;28;20476;-72
2021/09/15 22:31:13;;;;;;;12.40;7.65;;;;;;;16.24;100.00;95007.84;10534361;28;20140;-72
2021/09/15 22:36:13;;;;;;;12.75;7.72;;;;;;;16.14;100.00;94998.00;10533911;28;20027;-72
2021/09/15 22:41:14;;;;;;;12.77;7.70;;;;;;;16.06;100.00;95001.44;10533148;28;20032;-72
2021/09/15 22:46:14;;;;;;;14.37;7.53;;;;;;;15.87;100.00;94998.81;10533308;28;20114;-72
2021/09/15 22:51:14;;;;;;;11.47;8.10;;;;;;;15.88;100.00;95003.16;10533398;28;20034;-72
2021/09/15 22:56:15;;;;;;;12.40;7.87;;;;;;;15.73;100.00;95006.91;10532438;28;20861;-72
2021/09/15 23:01:16;;;;;;;12.77;9.43;;;;;;;15.62;100.00;95006.28;10529859;28;20302;-72
2021/09/15 23:06:16;;;;;;;14.45;8.80;;;;;;;15.54;100.00;95004.25;10531653;28;20298;-72
2021/09/15 23:11:17;;;;;;;18.60;8.73;;;;;;;15.42;100.00;95004.75;10531326;28;20031;-73
2021/09/15 23:16:17;;;;;;;18.13;9.83;;;;;;;15.43;100.00;94992.78;10531029;28;20034;-72